Time;durP1;ratioP1;P1;durP2;ratioP2;P2;SDS_P1;SDS_P2;PMS_P1;PMS_P2;Temp;Humidity;BMP_temperature;BMP_pressure;BME280_temperature;BME280_humidity;BME280_pressure;Samples;Min_cycle;Max_cycle;Signal;HPM_P1;HPM_P2
2021/04/23 00:00:47;;;;;;;2.10;1.80;;;;;;;19.25;48.65;100009.09;2047161;28;20039;-68
2021/04/23 00:01:49;;;;;;;2.20;1.73;;;;;;;19.26;48.75;100005.38;2045488;28;20027;-67
2021/04/23 00:02:51;;;;;;;4.05;2.92;;;;;;;19.27;48.52;99998.03;2045116;29;20152;-68
2021/04/23 00:03:57;;;;;;;4.10;2.50;;;;;;;19.28;48.59;100003.38;2039797;29;20088;-68
2021/04/23 00:04:58;;;;;;;3.20;1.90;;;;;;;19.28;48.43;100003.38;2041747;29;20509;-67
2021/04/23 00:06:12;;;;;;;6.43;2.90;;;;;;;19.26;48.73;99999.91;2042608;28;20035;-67
2021/04/23 00:07:13;;;;;;;3.30;1.83;;;;;;;19.27;48.57;100001.63;2047558;28;20037;-67
2021/04/23 00:08:16;;;;;;;2.57;2.20;;;;;;;19.27;48.62;100003.50;2044937;29;20027;-67
2021/04/23 00:09:20;;;;;;;3.25;2.08;;;;;;;19.26;48.51;100004.53;2045979;28;20494;-67
2021/04/23 00:10:23;;;;;;;3.63;2.08;;;;;;;19.27;48.67;100003.50;2047298;28;20023;-67
2021/04/23 00:11:31;;;;;;;2.22;1.95;;;;;;;19.27;48.87;100001.63;2045797;28;20046;-67
2021/04/23 00:12:32;;;;;;;2.95;1.88;;;;;;;19.27;48.56;100009.81;2043017;28;20039;-67
2021/04/23 00:13:33;;;;;;;2.60;1.80;;;;;;;19.26;48.54;100004.53;2047093;28;20057;-68
2021/04/23 00:14:45;;;;;;;3.03;2.33;;;;;;;19.26;48.66;100005.38;2046583;28;20031;-68
2021/04/23 00:15:47;;;;;;;6.05;1.90;;;;;;;19.26;48.64;99999.91;2043836;28;20039;-68
2021/04/23 00:16:47;;;;;;;;;;;;;;;19.22;48.67;100003.09;2047851;28;20031;-67
2021/04/23 00:17:49;;;;;;;2.05;1.83;;;;;;;19.23;48.58;100005.69;2046938;29;19917;-67
2021/04/23 00:18:49;;;;;;;2.55;2.03;;;;;;;19.22;48.72;100006.69;2045203;28;20031;-68
2021/04/23 00:19:50;;;;;;;3.13;2.63;;;;;;;19.24;48.65;100009.28;2044950;29;20131;-68
2021/04/23 00:20:52;;;;;;;1.90;1.70;;;;;;;19.24;48.66;100004.66;2047513;28;20027;-67
2021/04/23 00:21:54;;;;;;;2.63;2.10;;;;;;;19.23;48.65;100002.97;2047040;28;20077;-67
2021/04/23 00:22:56;;;;;;;3.53;2.00;;;;;;;19.24;48.63;100012.00;2045872;28;20099;-67
2021/04/23 00:23:58;;;;;;;2.25;1.70;;;;;;;19.24;48.57;100015.59;2042329;28;20056;-67
2021/04/23 00:24:58;;;;;;;;;;;;;;;19.19;48.62;100004.28;2047629;28;20517;-67
2021/04/23 00:26:00;;;;;;;2.53;1.70;;;;;;;19.20;48.75;100005.97;2047389;28;20665;-67
2021/04/23 00:27:01;;;;;;;2.58;1.92;;;;;;;19.20;48.59;100011.44;2046648;28;20059;-67
2021/04/23 00:28:04;;;;;;;2.45;2.10;;;;;;;19.20;48.63;100003.25;2046837;28;20046;-67
2021/04/23 00:29:05;;;;;;;2.88;1.90;;;;;;;19.21;48.73;100002.25;2043238;28;20733;-67
2021/04/23 00:30:06;;;;;;;2.53;2.33;;;;;;;19.22;48.57;99998.50;2046501;29;20519;-67
2021/04/23 00:31:08;;;;;;;2.25;1.73;;;;;;;19.22;48.59;100009.44;2046765;28;20087;-67
2021/04/23 00:33:29;;;;;;;3.38;1.70;;;;;;;19.22;48.64;100003.97;2046337;29;20031;-67
2021/04/23 00:34:29;;;;;;;2.38;2.13;;;;;;;19.21;48.66;100005.00;2047060;28;20031;-67
2021/04/23 00:35:33;;;;;;;2.57;2.20;;;;;;;19.22;48.50;99997.63;2045859;28;20031;-68
2021/04/23 00:36:33;;;;;;;2.85;1.80;;;;;;;19.22;48.63;100001.22;2046547;29;20030;-67
2021/04/23 00:37:34;;;;;;;1.93;1.50;;;;;;;19.24;48.56;100004.66;2042204;28;20041;-67
2021/04/23 00:38:36;;;;;;;2.40;1.90;;;;;;;19.22;48.55;99998.50;2045983;28;20038;-68
2021/04/23 00:39:37;;;;;;;3.33;2.35;;;;;;;19.23;48.57;100010.28;2039058;29;20023;-69
2021/04/23 00:40:48;;;;;;;3.07;1.53;;;;;;;19.22;48.52;99997.63;2042998;29;20075;-68
2021/04/23 00:41:50;;;;;;;2.88;2.08;;;;;;;19.22;48.49;100003.97;2047002;28;20118;-68
2021/04/23 00:42:51;;;;;;;3.58;2.20;;;;;;;19.22;48.60;100003.97;2043660;29;20510;-68
2021/04/23 00:44:00;;;;;;;2.13;1.75;;;;;;;19.22;48.60;100001.22;2046472;29;20043;-68
2021/04/23 00:45:01;;;;;;;3.55;1.85;;;;;;;19.23;48.74;100005.69;2039853;28;20039;-68
2021/04/23 00:46:03;;;;;;;2.97;2.00;;;;;;;19.24;48.37;99999.22;2042287;28;20557;-68
2021/04/23 00:47:04;;;;;;;2.03;1.67;;;;;;;19.25;48.47;99998.19;2046355;29;20027;-68
2021/04/23 00:48:06;;;;;;;2.57;2.00;;;;;;;19.25;48.58;100003.66;2047494;28;20031;-69
2021/04/23 00:49:07;;;;;;;2.67;1.85;;;;;;;19.26;48.54;99999.91;2043368;28;20046;-69
2021/04/23 00:50:10;;;;;;;3.50;2.35;;;;;;;19.27;48.16;99995.31;2047518;28;20134;-68
2021/04/23 00:51:14;;;;;;;3.05;1.80;;;;;;;19.26;48.45;99997.19;2046022;28;20873;-68
2021/04/23 00:52:14;;;;;;;2.72;2.00;;;;;;;19.27;48.42;99996.16;2046735;29;20105;-68
2021/04/23 00:53:21;;;;;;;2.00;1.80;;;;;;;19.27;48.45;100000.78;2047200;28;20035;-68
2021/04/23 00:54:23;;;;;;;2.50;2.00;;;;;;;19.28;48.40;100000.63;2046462;28;20895;-68
2021/04/23 00:55:24;;;;;;;1.95;1.80;;;;;;;19.30;48.45;99999.59;2045980;28;20183;-68
2021/04/23 00:56:29;;;;;;;2.97;1.70;;;;;;;19.30;48.29;100003.19;2042105;28;20035;-68
2021/04/23 00:57:29;;;;;;;1.67;1.58;;;;;;;19.32;48.37;100000.31;2046869;28;20486;-68
2021/04/23 00:58:30;;;;;;;3.60;1.73;;;;;;;19.30;48.43;99996.88;2046701;29;20385;-68
2021/04/23 00:59:31;;;;;;;2.40;1.70;;;;;;;19.30;48.37;99996.88;2044029;29;20027;-68
2021/04/23 01:00:31;;;;;;;3.13;1.87;;;;;;;19.28;48.31;99997.91;2044391;28;20740;-68
2021/04/23 01:01:40;;;;;;;2.87;1.87;;;;;;;19.30;48.47;99996.88;2046759;28;20499;-69
2021/04/23 01:02:41;;;;;;;3.25;1.92;;;;;;;19.31;48.46;99995.88;2046904;29;20105;-67
2021/04/23 01:03:42;;;;;;;2.10;1.77;;;;;;;19.31;48.41;100001.34;2046353;28;20027;-67
2021/04/23 01:04:42;;;;;;;2.07;1.60;;;;;;;19.31;48.49;99995.88;2046991;28;20031;-67
2021/04/23 01:05:43;;;;;;;3.77;2.13;;;;;;;19.28;48.62;99997.91;2046772;29;20023;-67
2021/04/23 01:06:44;;;;;;;2.83;1.60;;;;;;;19.28;48.53;100003.38;2044668;28;20038;-67
2021/04/23 01:07:50;;;;;;;4.70;1.90;;;;;;;19.27;48.50;99993.44;2043516;28;20039;-67
2021/04/23 01:08:52;;;;;;;3.08;1.95;;;;;;;19.27;48.54;99992.56;2043456;29;20030;-67
2021/04/23 01:09:53;;;;;;;4.15;1.65;;;;;;;19.27;48.57;99993.44;2046844;29;20027;-67
2021/04/23 01:11:00;;;;;;;4.13;2.10;;;;;;;19.27;48.54;99995.31;2045647;28;20051;-67
2021/04/23 01:12:04;;;;;;;3.03;1.90;;;;;;;19.26;48.62;99994.44;2046686;28;20039;-67
2021/04/23 01:13:05;;;;;;;2.63;2.03;;;;;;;19.27;48.74;99990.69;2046663;28;20038;-67
2021/04/23 01:14:06;;;;;;;2.67;1.63;;;;;;;19.27;48.45;99989.84;2045017;29;20022;-68
2021/04/23 01:15:08;;;;;;;4.07;1.83;;;;;;;19.27;48.57;99990.69;2046700;28;20038;-68
2021/04/23 01:16:16;;;;;;;2.08;1.60;;;;;;;19.26;48.74;99991.72;2041736;29;20512;-68
2021/04/23 01:17:16;;;;;;;3.13;2.10;;;;;;;19.27;48.52;99998.03;2042432;28;20046;-67
2021/04/23 01:18:17;;;;;;;2.73;2.00;;;;;;;19.24;48.59;99985.53;2046981;28;20062;-67
2021/04/23 01:19:21;;;;;;;2.50;2.03;;;;;;;19.24;48.70;99996.47;2046059;28;20553;-67
2021/04/23 01:20:23;;;;;;;2.17;1.77;;;;;;;19.25;48.57;99997.31;2037565;29;20526;-68
2021/04/23 01:21:26;;;;;;;2.83;2.35;;;;;;;19.24;48.74;99999.22;2046566;28;20023;-67
2021/04/23 01:22:27;;;;;;;3.72;1.75;;;;;;;19.24;48.68;99991.00;2046959;29;20070;-67
2021/04/23 01:23:28;;;;;;;2.93;2.10;;;;;;;19.24;48.65;99996.47;2045715;29;20023;-68
2021/04/23 01:24:28;;;;;;;2.80;1.87;;;;;;;19.24;48.64;99993.75;2046680;28;20035;-67
2021/04/23 01:25:30;;;;;;;3.70;2.50;;;;;;;19.24;48.64;99996.47;2046487;28;20098;-67
2021/04/23 01:26:35;;;;;;;3.15;1.75;;;;;;;19.23;48.65;99988.41;2046639;28;20027;-67
2021/04/23 01:27:36;;;;;;;2.90;2.08;;;;;;;19.23;48.74;99992.03;2041442;28;20071;-67
2021/04/23 01:28:38;;;;;;;3.70;1.77;;;;;;;19.24;48.67;99987.44;2045098;28;20035;-67
2021/04/23 01:29:38;;;;;;;2.28;1.73;;;;;;;19.25;48.55;99986.41;2046792;29;20062;-67
2021/04/23 01:30:39;;;;;;;2.23;1.73;;;;;;;19.24;48.54;99981.97;2041747;28;20031;-67
2021/04/23 01:31:42;;;;;;;2.70;2.23;;;;;;;19.25;48.57;99989.13;2043556;28;20074;-67
2021/04/23 01:32:43;;;;;;;2.15;1.90;;;;;;;19.26;48.49;99983.53;2038690;29;20504;-67
2021/04/23 01:33:47;;;;;;;2.60;1.60;;;;;;;19.25;48.51;99987.25;2044784;29;20074;-68
2021/04/23 01:34:48;;;;;;;3.30;1.85;;;;;;;19.26;48.43;99985.41;2044934;28;20127;-67
2021/04/23 01:35:48;;;;;;;3.13;1.90;;;;;;;19.25;48.47;99984.53;2046771;29;20027;-67
2021/04/23 01:36:52;;;;;;;3.77;1.93;;;;;;;19.25;48.54;99987.25;2046340;29;20038;-67
2021/04/23 01:37:53;;;;;;;2.63;1.90;;;;;;;19.24;48.51;99980.06;2038875;29;20050;-68
2021/04/23 01:38:54;;;;;;;2.80;1.77;;;;;;;19.24;48.38;99985.53;2045379;29;20035;-69
2021/04/23 01:39:56;;;;;;;1.83;1.37;;;;;;;19.24;48.52;99979.22;2044046;28;20049;-70
2021/04/23 01:40:57;;;;;;;2.20;1.80;;;;;;;19.23;48.48;99986.56;2041008;28;20027;-70
2021/04/23 01:41:58;;;;;;;2.30;1.50;;;;;;;19.23;48.50;99983.84;2042606;28;20059;-70
2021/04/23 01:42:58;;;;;;;4.40;2.00;;;;;;;19.24;48.39;99985.53;2037813;29;20920;-69
2021/04/23 01:44:00;;;;;;;2.40;1.80;;;;;;;19.23;48.49;99983.84;2043367;29;20651;-69
2021/04/23 01:45:01;;;;;;;2.33;1.80;;;;;;;19.22;48.55;99982.09;2038608;29;20042;-69
2021/04/23 01:46:04;;;;;;;3.10;2.10;;;;;;;19.23;48.45;99985.69;2038321;28;20059;-69
2021/04/23 01:47:06;;;;;;;2.63;1.85;;;;;;;19.24;48.55;99976.50;2045707;29;20035;-69
2021/04/23 01:48:08;;;;;;;2.67;1.98;;;;;;;19.24;48.40;99982.81;2046531;29;20576;-69
2021/04/23 01:49:11;;;;;;;1.85;1.60;;;;;;;19.22;48.27;99987.56;2046889;28;20054;-69
2021/04/23 01:50:16;;;;;;;2.17;1.60;;;;;;;19.22;48.42;99982.09;2038223;29;20080;-69
2021/04/23 01:51:17;;;;;;;2.90;1.85;;;;;;;19.23;48.39;99986.56;2039406;28;20051;-69
2021/04/23 01:52:18;;;;;;;3.47;1.70;;;;;;;19.22;48.48;99982.09;2039097;29;20043;-69
2021/04/23 01:53:19;;;;;;;2.30;1.42;;;;;;;19.20;48.61;99984.13;2042469;29;20034;-70
2021/04/23 01:54:20;;;;;;;2.23;1.63;;;;;;;19.22;48.44;99987.56;2046948;28;20041;-69
2021/04/23 01:55:23;;;;;;;1.63;1.40;;;;;;;19.22;48.41;99982.09;2045732;28;20094;-69
2021/04/23 01:56:24;;;;;;;3.22;1.70;;;;;;;19.22;48.41;99981.25;2046309;28;20043;-69
2021/04/23 01:57:24;;;;;;;2.87;1.70;;;;;;;19.22;48.36;99981.25;2046853;29;20039;-69
2021/04/23 01:58:25;;;;;;;2.43;1.80;;;;;;;19.21;48.24;99974.94;2045630;29;20281;-69
2021/04/23 01:59:26;;;;;;;2.10;1.57;;;;;;;19.21;48.30;99983.13;2046939;28;20141;-69
2021/04/23 02:00:32;;;;;;;3.27;1.60;;;;;;;19.21;48.45;99985.00;2045002;28;20755;-70
2021/04/23 02:01:34;;;;;;;2.08;1.88;;;;;;;19.21;48.40;99985.00;2045342;28;20039;-69
2021/04/23 02:02:34;;;;;;;2.22;1.83;;;;;;;19.21;48.40;99985.84;2046817;28;20027;-69
2021/04/23 02:03:36;;;;;;;3.70;1.80;;;;;;;19.21;48.42;99985.00;2044530;28;20114;-70
2021/04/23 02:04:37;;;;;;;3.15;1.77;;;;;;;19.21;48.40;99991.31;2046807;28;20035;-68
2021/04/23 02:05:39;;;;;;;2.23;1.70;;;;;;;19.20;48.43;99989.59;2045588;29;20031;-67
2021/04/23 02:06:39;;;;;;;;;;;;;;;19.14;48.47;99989.34;2046357;28;20031;-68
2021/04/23 02:07:40;;;;;;;2.75;1.98;;;;;;;19.15;48.45;99982.88;2046797;29;20004;-67
2021/04/23 02:08:42;;;;;;;4.10;1.67;;;;;;;19.17;48.49;99981.69;2045959;28;20594;-67
2021/04/23 02:09:42;;;;;;;3.15;1.65;;;;;;;19.18;48.44;99979.81;2046869;29;20035;-67
2021/04/23 02:10:49;;;;;;;1.93;1.73;;;;;;;19.19;48.37;99987.88;2045421;29;20065;-67
2021/04/23 02:11:52;;;;;;;2.72;1.52;;;;;;;19.20;48.50;99977.81;2045655;28;20046;-67
2021/04/23 02:12:53;;;;;;;2.75;1.60;;;;;;;19.22;48.34;99982.09;2046512;28;20042;-67
2021/04/23 02:13:55;;;;;;;2.23;1.50;;;;;;;19.22;48.43;99978.50;2044482;28;20027;-68
2021/04/23 02:14:56;;;;;;;2.85;1.73;;;;;;;19.23;48.33;99982.94;2046533;28;20035;-67
2021/04/23 02:15:58;;;;;;;2.27;1.70;;;;;;;19.23;48.44;99978.38;2045215;29;20110;-67
2021/04/23 02:16:59;;;;;;;2.72;1.60;;;;;;;19.24;48.48;99985.53;2045534;28;20031;-69
2021/04/23 02:18:00;;;;;;;2.00;1.40;;;;;;;19.25;48.51;99986.41;2043507;28;20039;-69
2021/04/23 02:19:03;;;;;;;2.33;1.92;;;;;;;19.24;48.27;99982.81;2044427;29;20775;-69
2021/04/23 02:20:11;;;;;;;2.25;1.80;;;;;;;19.25;48.26;99981.78;2042580;29;20039;-70
2021/04/23 02:21:11;;;;;;;2.60;1.85;;;;;;;19.25;48.38;99980.94;2046220;28;20053;-69
2021/04/23 02:22:12;;;;;;;3.80;1.57;;;;;;;19.24;48.37;99985.53;2045513;28;20027;-68
2021/04/23 02:23:13;;;;;;;1.63;1.47;;;;;;;19.26;48.36;99983.53;2042718;29;20059;-69
2021/04/23 02:24:15;;;;;;;;;;;;;;;19.22;48.35;99992.19;2046057;29;20062;-68
2021/04/23 02:25:22;;;;;;;3.28;1.80;;;;;;;19.21;48.46;99983.13;2044926;28;20316;-68
2021/04/23 02:26:23;;;;;;;3.65;1.88;;;;;;;19.22;48.55;99987.56;2044249;28;20614;-68
2021/04/23 02:27:23;;;;;;;2.85;1.90;;;;;;;19.23;48.47;99982.94;2043196;29;20019;-68
2021/04/23 02:28:25;;;;;;;2.47;1.83;;;;;;;19.24;48.41;99990.16;2046102;28;20111;-68
2021/04/23 02:29:25;;;;;;;3.85;1.58;;;;;;;19.23;48.47;99986.56;2045306;28;20093;-69
2021/04/23 02:30:32;;;;;;;2.53;2.10;;;;;;;19.23;48.38;99981.09;2040785;28;20554;-68
2021/04/23 02:31:34;;;;;;;2.13;1.83;;;;;;;19.24;48.41;99985.53;2039732;28;20055;-67
2021/04/23 02:32:35;;;;;;;3.88;1.63;;;;;;;19.24;48.38;99990.16;2042039;28;20118;-68
2021/04/23 02:33:36;;;;;;;2.80;1.77;;;;;;;19.24;48.46;99988.28;2044340;28;20090;-68
2021/04/23 02:34:37;;;;;;;3.08;1.80;;;;;;;19.25;48.47;99989.97;2038647;28;20138;-68
2021/04/23 02:35:39;;;;;;;2.27;1.50;;;;;;;19.24;48.45;99991.00;2043596;29;20027;-68
2021/04/23 02:36:41;;;;;;;2.00;1.67;;;;;;;19.22;48.59;99987.56;2045153;28;20066;-68
2021/04/23 02:37:43;;;;;;;2.28;1.90;;;;;;;19.22;48.56;99987.56;2046147;28;20509;-68
2021/04/23 02:38:45;;;;;;;2.53;1.58;;;;;;;19.22;48.61;99998.50;2044505;28;20038;-68
2021/04/23 02:39:45;;;;;;;2.25;1.95;;;;;;;19.23;48.68;99992.03;2046140;28;20071;-68
2021/04/23 02:40:46;;;;;;;3.03;2.13;;;;;;;19.23;48.45;99988.41;2043386;29;20035;-68
2021/04/23 02:41:52;;;;;;;8.68;2.05;;;;;;;19.20;48.29;99984.13;2040879;28;20034;-68
2021/04/23 02:42:55;;;;;;;2.35;1.73;;;;;;;19.22;48.44;99993.03;2045766;28;20376;-70
2021/04/23 02:43:57;;;;;;;1.90;1.60;;;;;;;19.23;48.43;99993.88;2045840;29;20027;-68
2021/04/23 02:44:57;;;;;;;2.90;1.77;;;;;;;19.24;48.57;99996.47;2045062;28;20398;-68
2021/04/23 02:46:00;;;;;;;2.37;1.73;;;;;;;19.22;48.52;99995.75;2044336;29;20031;-68
2021/04/23 02:47:00;;;;;;;2.03;1.63;;;;;;;19.23;48.50;99997.50;2038016;29;20525;-68
2021/04/23 02:48:02;;;;;;;2.43;1.77;;;;;;;19.21;48.55;99994.06;2042676;29;20402;-68
2021/04/23 02:49:04;;;;;;;2.67;1.60;;;;;;;19.22;48.59;99994.91;2044440;28;20628;-68
2021/04/23 02:50:07;;;;;;;3.55;1.50;;;;;;;19.21;48.51;99996.78;2045261;29;20031;-69
2021/04/23 02:51:11;;;;;;;2.20;1.67;;;;;;;19.21;48.55;99991.31;2044724;29;20041;-68
2021/04/23 02:52:12;;;;;;;2.60;1.88;;;;;;;19.21;48.54;99993.19;2052763;28;20082;-69
2021/04/23 02:53:13;;;;;;;2.60;1.73;;;;;;;19.20;48.55;99986.00;2052399;28;20034;-68
2021/04/23 02:54:16;;;;;;;2.35;1.70;;;;;;;19.19;48.47;99987.88;2051826;28;20058;-68
2021/04/23 02:55:18;;;;;;;2.92;2.08;;;;;;;19.20;48.44;99991.47;2040536;29;20522;-68
2021/04/23 02:56:21;;;;;;;2.15;1.45;;;;;;;19.18;48.45;99986.19;2043131;29;20027;-68
2021/04/23 02:57:21;;;;;;;1.98;1.77;;;;;;;19.19;48.54;99987.88;2042917;29;20070;-68
2021/04/23 02:58:22;;;;;;;3.00;1.70;;;;;;;19.19;48.58;99976.94;2045478;29;20074;-69
2021/04/23 02:59:23;;;;;;;1.93;1.50;;;;;;;19.19;48.50;99987.88;2045898;29;20093;-68
2021/04/23 03:00:26;;;;;;;2.23;1.80;;;;;;;19.20;48.51;99988.72;2042807;29;20031;-68
2021/04/23 03:01:34;;;;;;;2.25;1.80;;;;;;;19.18;48.50;99986.19;2045407;29;20030;-68
2021/04/23 03:02:35;;;;;;;2.92;1.75;;;;;;;19.18;48.37;99975.25;2043447;29;20054;-68
2021/04/23 03:03:36;;;;;;;2.03;1.50;;;;;;;19.19;48.38;99982.41;2040763;28;20025;-69
2021/04/23 03:04:37;;;;;;;2.25;1.80;;;;;;;19.18;48.51;99980.72;2044221;29;20569;-68
2021/04/23 03:05:40;;;;;;;4.13;1.73;;;;;;;19.18;48.33;99990.75;2044095;29;20409;-68
2021/04/23 03:06:42;;;;;;;3.03;1.52;;;;;;;19.18;48.43;99980.72;2045821;28;20031;-68
2021/04/23 03:07:42;;;;;;;1.85;1.52;;;;;;;19.17;48.36;99981.69;2045646;28;20027;-67
2021/04/23 03:08:43;;;;;;;2.30;1.67;;;;;;;19.18;48.39;99982.56;2045549;28;20102;-68
2021/04/23 03:09:43;;;;;;;2.17;1.67;;;;;;;19.17;48.30;99984.44;2044820;28;20089;-68
2021/04/23 03:10:53;;;;;;;2.90;1.97;;;;;;;19.16;48.40;99979.16;2045545;29;20414;-69
2021/04/23 03:11:55;;;;;;;4.50;2.00;;;;;;;19.17;48.32;99989.91;2043679;28;20023;-68
2021/04/23 03:12:57;;;;;;;;;;;;;;;19.12;48.49;99986.78;2046023;28;20035;-68
2021/04/23 03:13:59;;;;;;;1.90;1.40;;;;;;;19.13;48.44;99983.00;2045548;28;20001;-67
2021/04/23 03:15:00;;;;;;;2.28;1.80;;;;;;;19.14;48.57;99982.03;2045112;28;20593;-68
2021/04/23 03:16:01;;;;;;;1.90;1.70;;;;;;;19.13;48.51;99980.28;2046201;28;20437;-68
2021/04/23 03:17:02;;;;;;;3.08;1.80;;;;;;;19.13;48.48;99985.75;2045995;28;20058;-69
2021/04/23 03:18:05;;;;;;;3.17;2.00;;;;;;;19.13;48.38;99980.28;2045830;29;20059;-68
2021/04/23 03:19:15;;;;;;;3.17;1.60;;;;;;;19.14;48.56;99984.75;2046219;28;20038;-68
2021/04/23 03:20:18;;;;;;;2.10;1.80;;;;;;;19.13;48.44;99982.16;2045474;28;20031;-68
2021/04/23 03:21:22;;;;;;;2.35;1.75;;;;;;;19.13;48.43;99974.81;2040509;28;20027;-68
2021/04/23 03:22:22;;;;;;;3.33;1.60;;;;;;;19.14;48.30;99982.03;2044222;29;20082;-67
2021/04/23 03:23:23;;;;;;;2.33;1.60;;;;;;;19.14;48.37;99972.97;2044625;28;20098;-68
2021/04/23 03:24:24;;;;;;;2.25;1.88;;;;;;;19.15;48.38;99975.53;2047253;28;20035;-69
2021/04/23 03:25:26;;;;;;;2.53;1.63;;;;;;;19.14;48.35;99979.28;2047153;29;20066;-68
2021/04/23 03:26:26;;;;;;;2.08;1.88;;;;;;;19.14;48.34;99976.56;2044859;29;20027;-67
2021/04/23 03:27:27;;;;;;;2.57;1.63;;;;;;;19.15;48.42;99974.66;2045264;28;20062;-69
2021/04/23 03:28:27;;;;;;;2.97;1.83;;;;;;;19.15;48.37;99975.53;2043519;29;20031;-68
2021/04/23 03:29:28;;;;;;;2.27;1.80;;;;;;;19.15;48.31;99974.66;2047110;28;20063;-67
2021/04/23 03:30:31;;;;;;;2.47;1.93;;;;;;;19.15;48.37;99972.78;2044192;28;20031;-68
2021/04/23 03:31:33;;;;;;;2.03;1.65;;;;;;;19.15;48.37;99972.78;2046864;28;20072;-68
2021/04/23 03:32:33;;;;;;;3.30;2.10;;;;;;;19.18;48.32;99972.50;2047741;28;20047;-67
2021/04/23 03:33:34;;;;;;;5.53;2.53;;;;;;;19.20;48.28;99969.59;2045316;28;20027;-68
2021/04/23 03:34:35;;;;;;;2.33;1.60;;;;;;;19.20;48.30;99970.47;2048042;29;20034;-68
2021/04/23 03:35:37;;;;;;;1.87;1.47;;;;;;;19.19;48.29;99968.75;2046914;28;20565;-68
2021/04/23 03:36:37;;;;;;;;;;;;;;;19.15;48.41;99970.06;2047506;28;20496;-69
2021/04/23 03:37:41;;;;;;;1.50;1.40;;;;;;;19.17;48.40;99970.78;2047532;28;20538;-68
2021/04/23 03:38:45;;;;;;;2.05;1.58;;;;;;;19.19;48.37;99971.47;2041301;29;20800;-68
2021/04/23 03:39:51;;;;;;;2.75;1.90;;;;;;;19.19;48.47;99974.22;2047427;28;20097;-68
2021/04/23 03:40:53;;;;;;;3.58;1.95;;;;;;;19.21;48.29;99969.47;2043936;28;20023;-68
2021/04/23 03:41:54;;;;;;;2.13;1.33;;;;;;;19.20;48.42;99969.59;2046166;29;20023;-68
2021/04/23 03:42:55;;;;;;;1.73;1.47;;;;;;;19.21;48.25;99969.47;2046992;29;20054;-68
2021/04/23 03:44:01;;;;;;;2.43;1.90;;;;;;;19.20;48.29;99967.72;2043963;28;20028;-68
2021/04/23 03:45:03;;;;;;;2.28;1.83;;;;;;;19.21;48.26;99966.72;2047276;29;20350;-68
2021/04/23 03:46:04;;;;;;;2.45;2.00;;;;;;;19.22;48.32;99971.16;2042019;29;20034;-68
2021/04/23 03:47:05;;;;;;;1.90;1.75;;;;;;;19.22;48.37;99975.78;2047352;29;21140;-68
2021/04/23 03:48:07;;;;;;;2.13;1.83;;;;;;;19.20;48.31;99967.72;2047987;28;20168;-68
2021/04/23 03:49:07;;;;;;;3.47;1.80;;;;;;;19.22;48.33;99973.03;2046477;28;20074;-69
2021/04/23 03:50:10;;;;;;;1.63;1.53;;;;;;;19.20;48.22;99967.72;2046390;28;20081;-68
2021/04/23 03:51:12;;;;;;;3.25;1.25;;;;;;;19.22;48.35;99964.84;2043889;28;20364;-68
2021/04/23 03:52:12;;;;;;;1.50;1.40;;;;;;;19.22;48.25;99971.16;2044842;28;20031;-68
2021/04/23 03:53:14;;;;;;;2.60;1.80;;;;;;;19.22;48.18;99965.69;2044711;29;20066;-68
2021/04/23 03:54:15;;;;;;;2.47;1.55;;;;;;;19.23;48.17;99972.03;2041411;29;20251;-68
2021/04/23 03:55:23;;;;;;;2.63;1.87;;;;;;;19.21;48.33;99966.72;2047188;28;20034;-68
2021/04/23 03:56:23;;;;;;;2.40;1.48;;;;;;;19.21;48.27;99964.00;2046118;29;20043;-68
2021/04/23 03:57:24;;;;;;;2.63;1.60;;;;;;;19.20;48.46;99962.25;2042116;29;20115;-68
2021/04/23 03:58:25;;;;;;;2.07;1.73;;;;;;;19.22;48.20;99965.69;2045792;29;20118;-68
2021/04/23 03:59:26;;;;;;;2.00;1.58;;;;;;;19.22;48.21;99960.25;2046173;28;20065;-68
2021/04/23 04:00:33;;;;;;;3.57;1.80;;;;;;;19.20;48.31;99964.13;2046630;28;20062;-68
2021/04/23 04:01:35;;;;;;;1.38;1.27;;;;;;;19.20;48.29;99970.47;2046082;28;20453;-68
2021/04/23 04:02:35;;;;;;;;;;;;;;;19.16;48.27;99971.78;2043278;28;20039;-68
2021/04/23 04:03:36;;;;;;;3.10;1.90;;;;;;;19.17;48.44;99968.03;2045634;29;19932;-68
2021/04/23 04:04:37;;;;;;;3.25;1.73;;;;;;;19.17;48.40;99965.31;2046552;28;20448;-68
2021/04/23 04:05:38;;;;;;;2.20;1.57;;;;;;;19.19;48.44;99967.91;2045670;29;20125;-68
2021/04/23 04:06:39;;;;;;;2.28;1.65;;;;;;;19.17;48.40;99959.84;2042049;29;20110;-68
2021/04/23 04:07:39;;;;;;;2.10;1.77;;;;;;;19.17;48.43;99968.03;2044714;29;20604;-68
2021/04/23 04:08:40;;;;;;;2.13;1.70;;;;;;;19.19;48.25;99965.16;2046576;28;20055;-68
2021/04/23 04:09:40;;;;;;;2.57;1.73;;;;;;;19.20;48.27;99967.72;2044067;28;20154;-68
2021/04/23 04:10:42;;;;;;;3.27;1.70;;;;;;;19.19;48.29;99966.03;2046778;29;20042;-68
2021/04/23 04:11:42;;;;;;;1.75;1.48;;;;;;;19.20;48.21;99962.25;2042997;28;20032;-68
2021/04/23 04:12:43;;;;;;;2.40;1.60;;;;;;;19.21;48.34;99968.59;2039262;29;20040;-68
2021/04/23 04:13:44;;;;;;;3.15;1.77;;;;;;;19.20;48.24;99969.59;2041177;29;20110;-67
2021/04/23 04:14:44;;;;;;;2.23;1.73;;;;;;;19.17;48.27;99965.31;2044823;29;20035;-68
2021/04/23 04:15:45;;;;;;;1.83;1.50;;;;;;;19.17;48.38;99964.47;2042669;28;20042;-67
2021/04/23 04:16:46;;;;;;;1.58;1.40;;;;;;;19.16;48.41;99966.34;2045408;28;20027;-68
2021/04/23 04:17:46;;;;;;;3.00;1.70;;;;;;;19.16;48.46;99963.59;2047819;28;20046;-67
2021/04/23 04:18:47;;;;;;;1.73;1.43;;;;;;;19.15;48.58;99964.59;2051695;28;20034;-67
2021/04/23 04:19:47;;;;;;;2.33;1.50;;;;;;;19.15;48.40;99959.13;2040571;28;20086;-67
2021/04/23 04:20:50;;;;;;;2.47;2.17;;;;;;;19.15;48.42;99964.59;2041923;28;20027;-67
2021/04/23 04:21:51;;;;;;;2.22;1.40;;;;;;;19.12;48.43;99964.91;2037792;28;20027;-67
2021/04/23 04:22:51;;;;;;;3.03;1.70;;;;;;;19.12;48.59;99964.91;2041360;29;20024;-68
2021/04/23 04:23:52;;;;;;;1.43;1.33;;;;;;;19.15;48.48;99956.41;2046981;28;20035;-67
2021/04/23 04:24:53;;;;;;;2.70;1.80;;;;;;;19.14;48.21;99962.88;2042002;28;20080;-67
2021/04/23 04:25:58;;;;;;;1.85;1.65;;;;;;;19.14;48.32;99968.34;2043022;28;20026;-68
2021/04/23 04:26:59;;;;;;;1.77;1.60;;;;;;;19.14;48.20;99965.63;2045638;29;20043;-70
2021/04/23 04:28:00;;;;;;;2.13;1.43;;;;;;;19.14;48.32;99968.34;2045421;29;20055;-67
2021/04/23 04:29:00;;;;;;;4.60;1.93;;;;;;;19.16;48.18;99968.22;2040782;29;20067;-67
2021/04/23 04:30:01;;;;;;;7.10;1.60;;;;;;;19.16;48.16;99971.78;2041983;29;20032;-67
2021/04/23 04:31:01;;;;;;;10.20;1.97;;;;;;;19.16;48.34;99971.78;2042102;28;20036;-67
2021/04/23 04:32:02;;;;;;;2.67;1.53;;;;;;;19.17;48.23;99978.13;2041588;28;20043;-65
2021/04/23 04:33:05;;;;;;;4.07;1.70;;;;;;;19.11;47.26;99974.13;2041668;29;20047;-65
2021/04/23 04:34:40;;;;;;;3.13;1.58;;;;;;;19.11;47.53;99970.50;2042537;29;20039;-65
2021/04/23 04:35:41;;;;;;;6.20;1.58;;;;;;;19.09;46.99;99973.41;2041991;28;20030;-65
2021/04/23 04:36:41;;;;;;;3.00;1.80;;;;;;;19.06;47.58;99971.00;2040427;28;20035;-65
2021/04/23 04:37:42;;;;;;;3.90;1.80;;;;;;;19.05;46.76;99974.72;2043261;29;20808;-65
2021/04/23 04:38:42;;;;;;;2.87;2.00;;;;;;;19.04;46.90;99964.81;2039648;29;20027;-65
2021/04/23 04:39:43;;;;;;;3.27;1.40;;;;;;;19.04;46.76;99973.88;2041740;29;20027;-65
2021/04/23 04:40:46;;;;;;;3.03;2.00;;;;;;;19.07;47.13;99972.72;2040442;29;20573;-65
2021/04/23 04:41:47;;;;;;;2.08;1.58;;;;;;;19.06;47.05;99976.47;2042568;28;20629;-65
2021/04/23 04:43:57;;;;;;;3.13;1.58;;;;;;;19.10;46.53;99969.66;2038527;28;20035;-65
2021/04/23 04:45:01;;;;;;;3.73;1.67;;;;;;;19.13;46.47;99976.69;2041195;28;20566;-66
2021/04/23 04:46:01;;;;;;;3.90;1.55;;;;;;;19.11;46.31;99978.72;2041060;29;20514;-65
2021/04/23 04:47:03;;;;;;;7.30;1.80;;;;;;;19.15;46.25;99981.00;2040189;28;20040;-64
2021/04/23 04:48:04;;;;;;;;;;;;;;;19.13;46.37;99982.16;2041896;29;20038;-65
2021/04/23 04:49:04;;;;;;;3.63;1.88;;;;;;;19.13;46.30;99976.69;2041113;29;19920;-65
2021/04/23 04:50:11;;;;;;;9.97;1.53;;;;;;;19.15;46.04;99978.25;2044935;28;20034;-65
2021/04/23 04:51:12;;;;;;;4.13;2.10;;;;;;;19.18;46.10;99988.91;2043452;29;20067;-65
2021/04/23 04:52:12;;;;;;;6.88;1.80;;;;;;;19.21;45.93;99985.84;2041115;28;20102;-65
2021/04/23 04:53:13;;;;;;;5.87;2.23;;;;;;;19.20;46.00;99984.13;2043911;29;20047;-64
2021/04/23 04:54:14;;;;;;;7.80;2.55;;;;;;;19.21;45.96;99980.41;2042181;29;20035;-65
2021/04/23 04:55:15;;;;;;;12.70;2.10;;;;;;;19.24;45.88;99987.44;2044421;28;20574;-65